Llanerch, Pennsylvania
Current Conditions -  °F | °C
As of 10:54 AM on Saturday 25 Oct 2014 (Local Time) from KPHL Reporting Station
Few Clouds Few Clouds  
Wind Chill: 62°   Ceiling: Unl
Heat Index: 62°   Visibility: 10mi
Dew Point: 41°   Wind: 10mph
Humidity: 46%   Direction: 260°W
Pressure: 29.9"   Gusts: NA
Location:  39.9771°N, 75.3116°W
Report Text: KPHL 251454Z 26009KT 10SM FEW035 FEW250 17/05 A2990 RMK AO2 SLP124 T01670050 58010
Loading
Personal Weather Stations






























Interactive Weather Map
Tropical Storm Tracking
New forecast layout! Learn more

10-Day Weather Forecast

Advertisements
Track Severe Weather on mobile